sensor_id;sensor_type;location;lat;lon;timestamp;pressure;altitude;pressure_sealevel;temperature;humidity
61906;BME280;47863;55.766;37.672;2023-05-12T00:02:08;100490.22;;;9.90;58.16
61906;BME280;47863;55.766;37.672;2023-05-12T00:04:34;100492.91;;;9.90;58.14
61906;BME280;47863;55.766;37.672;2023-05-12T00:07:00;100442.88;;;9.61;58.30
61906;BME280;47863;55.766;37.672;2023-05-12T00:09:26;100490.22;;;9.90;58.31
61906;BME280;47863;55.766;37.672;2023-05-12T00:11:52;100462.59;;;9.70;58.21
61906;BME280;47863;55.766;37.672;2023-05-12T00:14:18;100476.41;;;9.85;58.36
61906;BME280;47863;55.766;37.672;2023-05-12T00:16:44;100472.63;;;9.87;58.33
61906;BME280;47863;55.766;37.672;2023-05-12T00:19:11;100465.81;;;9.83;58.38
61906;BME280;47863;55.766;37.672;2023-05-12T00:21:37;100491.19;;;9.99;58.40
61906;BME280;47863;55.766;37.672;2023-05-12T00:24:03;100464.84;;;9.84;58.44
61906;BME280;47863;55.766;37.672;2023-05-12T00:26:28;100458.66;;;9.84;58.82
61906;BME280;47863;55.766;37.672;2023-05-12T00:28:54;100481.91;;;10.03;58.70
61906;BME280;47863;55.766;37.672;2023-05-12T00:31:19;100489.22;;;10.01;58.69
61906;BME280;47863;55.766;37.672;2023-05-12T00:33:45;100485.00;;;9.98;58.74
61906;BME280;47863;55.766;37.672;2023-05-12T00:36:11;100481.91;;;9.93;58.87
61906;BME280;47863;55.766;37.672;2023-05-12T00:38:36;100482.19;;;9.90;58.99
61906;BME280;47863;55.766;37.672;2023-05-12T00:41:02;100476.25;;;9.86;58.92
61906;BME280;47863;55.766;37.672;2023-05-12T00:43:29;100468.22;;;9.77;59.13
61906;BME280;47863;55.766;37.672;2023-05-12T00:45:56;100465.69;;;9.75;59.07
61906;BME280;47863;55.766;37.672;2023-05-12T00:48:22;100479.50;;;9.80;59.16
61906;BME280;47863;55.766;37.672;2023-05-12T00:50:47;100476.97;;;9.79;59.24
61906;BME280;47863;55.766;37.672;2023-05-12T00:53:13;100457.38;;;9.68;58.99
61906;BME280;47863;55.766;37.672;2023-05-12T00:55:40;100437.25;;;9.55;59.17
61906;BME280;47863;55.766;37.672;2023-05-12T00:58:06;100470.78;;;9.78;59.03
61906;BME280;47863;55.766;37.672;2023-05-12T01:00:32;100476.13;;;9.78;58.97
61906;BME280;47863;55.766;37.672;2023-05-12T01:02:57;100464.28;;;9.71;58.76
61906;BME280;47863;55.766;37.672;2023-05-12T01:05:29;100474.28;;;9.79;59.08
61906;BME280;47863;55.766;37.672;2023-05-12T01:07:58;100469.94;;;9.78;58.95
61906;BME280;47863;55.766;37.672;2023-05-12T01:10:24;100477.09;;;9.77;58.90
61906;BME280;47863;55.766;37.672;2023-05-12T01:12:50;100392.31;;;9.29;58.67
61906;BME280;47863;55.766;37.672;2023-05-12T01:15:16;100458.66;;;9.64;58.90
61906;BME280;47863;55.766;37.672;2023-05-12T01:17:50;100480.91;;;9.75;58.90
61906;BME280;47863;55.766;37.672;2023-05-12T01:20:20;100466.25;;;9.69;58.67
61906;BME280;47863;55.766;37.672;2023-05-12T01:22:48;100473.13;;;9.71;58.82
61906;BME280;47863;55.766;37.672;2023-05-12T01:25:14;100469.22;;;9.66;58.93
61906;BME280;47863;55.766;37.672;2023-05-12T01:27:41;100483.28;;;9.68;59.00
61906;BME280;47863;55.766;37.672;2023-05-12T01:30:09;100453.72;;;9.50;59.12
61906;BME280;47863;55.766;37.672;2023-05-12T01:32:37;100482.16;;;9.61;59.16
61906;BME280;47863;55.766;37.672;2023-05-12T01:35:04;100455.94;;;9.45;59.03
61906;BME280;47863;55.766;37.672;2023-05-12T01:37:31;100470.84;;;9.47;59.06
61906;BME280;47863;55.766;37.672;2023-05-12T01:39:56;100459.41;;;9.36;59.29
61906;BME280;47863;55.766;37.672;2023-05-12T01:42:22;100476.50;;;9.44;59.33
61906;BME280;47863;55.766;37.672;2023-05-12T01:44:47;100477.59;;;9.42;59.23
61906;BME280;47863;55.766;37.672;2023-05-12T01:47:13;100457.59;;;9.26;59.28
61906;BME280;47863;55.766;37.672;2023-05-12T01:49:40;100478.72;;;9.39;59.38
61906;BME280;47863;55.766;37.672;2023-05-12T01:52:05;100482.38;;;9.38;59.43
61906;BME280;47863;55.766;37.672;2023-05-12T01:54:31;100486.03;;;9.37;59.24
61906;BME280;47863;55.766;37.672;2023-05-12T01:56:57;100471.94;;;9.35;59.60
61906;BME280;47863;55.766;37.672;2023-05-12T01:59:23;100476.13;;;9.28;59.68
61906;BME280;47863;55.766;37.672;2023-05-12T02:01:48;100471.34;;;9.22;59.76
61906;BME280;47863;55.766;37.672;2023-05-12T02:04:14;100488.25;;;9.32;59.77
61906;BME280;47863;55.766;37.672;2023-05-12T02:06:39;100488.25;;;9.32;59.76
61906;BME280;47863;55.766;37.672;2023-05-12T02:09:05;100466.00;;;9.22;59.70
61906;BME280;47863;55.766;37.672;2023-05-12T02:11:30;100487.28;;;9.33;59.82
61906;BME280;47863;55.766;37.672;2023-05-12T02:13:56;100484.47;;;9.35;59.95
61906;BME280;47863;55.766;37.672;2023-05-12T02:16:23;100488.69;;;9.37;59.79
61906;BME280;47863;55.766;37.672;2023-05-12T02:18:48;100411.47;;;8.93;60.03
61906;BME280;47863;55.766;37.672;2023-05-12T02:21:34;100453.75;;;9.19;59.87
61906;BME280;47863;55.766;37.672;2023-05-12T02:24:00;100460.81;;;9.30;59.87
61906;BME280;47863;55.766;37.672;2023-05-12T02:26:25;100483.50;;;9.45;59.94
61906;BME280;47863;55.766;37.672;2023-05-12T02:28:51;100480.72;;;9.47;60.06
61906;BME280;47863;55.766;37.672;2023-05-12T02:31:16;100475.22;;;9.48;59.96
61906;BME280;47863;55.766;37.672;2023-05-12T02:33:42;100434.63;;;9.24;60.04
61906;BME280;47863;55.766;37.672;2023-05-12T02:36:08;100458.75;;;9.43;60.37
61906;BME280;47863;55.766;37.672;2023-05-12T02:38:33;100487.38;;;9.62;60.12
61906;BME280;47863;55.766;37.672;2023-05-12T02:40:59;100485.25;;;9.66;60.33
61906;BME280;47863;55.766;37.672;2023-05-12T02:43:25;100477.38;;;9.64;60.21
61906;BME280;47863;55.766;37.672;2023-05-12T02:45:51;100485.28;;;9.76;60.23
61906;BME280;47863;55.766;37.672;2023-05-12T02:48:16;100486.69;;;9.80;60.11
61906;BME280;47863;55.766;37.672;2023-05-12T02:50:42;100486.13;;;9.86;60.26
61906;BME280;47863;55.766;37.672;2023-05-12T02:53:08;100485.84;;;9.89;60.26
61906;BME280;47863;55.766;37.672;2023-05-12T02:55:33;100465.69;;;9.85;60.21
61906;BME280;47863;55.766;37.672;2023-05-12T02:57:59;100486.84;;;10.07;60.09
61906;BME280;47863;55.766;37.672;2023-05-12T03:00:25;100472.19;;;10.11;60.04
61906;BME280;47863;55.766;37.672;2023-05-12T03:02:51;100494.47;;;10.41;59.66
61906;BME280;47863;55.766;37.672;2023-05-12T03:05:16;100481.88;;;10.61;59.43
61906;BME280;47863;55.766;37.672;2023-05-12T03:07:42;100493.94;;;10.95;59.21
61906;BME280;47863;55.766;37.672;2023-05-12T03:10:08;100491.97;;;11.24;58.80
61906;BME280;47863;55.766;37.672;2023-05-12T03:12:35;100489.97;;;11.54;58.27
61906;BME280;47863;55.766;37.672;2023-05-12T03:15:01;100489.09;;;11.81;57.82
61906;BME280;47863;55.766;37.672;2023-05-12T03:17:33;100491.28;;;12.14;57.39
61906;BME280;47863;55.766;37.672;2023-05-12T03:19:58;100474.78;;;12.26;57.08
61906;BME280;47863;55.766;37.672;2023-05-12T03:22:24;100489.66;;;12.65;57.02
61906;BME280;47863;55.766;37.672;2023-05-12T03:24:50;100480.72;;;12.82;56.68
61906;BME280;47863;55.766;37.672;2023-05-12T03:27:16;100474.59;;;12.98;56.39
61906;BME280;47863;55.766;37.672;2023-05-12T03:29:41;100482.94;;;13.21;56.43
61906;BME280;47863;55.766;37.672;2023-05-12T03:32:07;100452.16;;;13.16;56.12
61906;BME280;47863;55.766;37.672;2023-05-12T03:34:33;100471.63;;;13.44;55.99
61906;BME280;47863;55.766;37.672;2023-05-12T03:36:58;100473.84;;;13.57;55.73
61906;BME280;47863;55.766;37.672;2023-05-12T03:39:24;100486.00;;;13.77;55.41
61906;BME280;47863;55.766;37.672;2023-05-12T03:41:50;100484.69;;;13.89;55.58
61906;BME280;47863;55.766;37.672;2023-05-12T03:44:15;100472.75;;;14.00;55.14
61906;BME280;47863;55.766;37.672;2023-05-12T03:46:41;100478.16;;;14.25;55.02
61906;BME280;47863;55.766;37.672;2023-05-12T03:49:07;100490.63;;;14.42;54.50
61906;BME280;47863;55.766;37.672;2023-05-12T03:51:32;100480.00;;;14.57;54.36
61906;BME280;47863;55.766;37.672;2023-05-12T03:53:58;100487.25;;;14.73;54.04
61906;BME280;47863;55.766;37.672;2023-05-12T03:56:24;100485.88;;;14.85;53.96
61906;BME280;47863;55.766;37.672;2023-05-12T03:58:49;100472.91;;;14.89;53.61
61906;BME280;47863;55.766;37.672;2023-05-12T04:01:15;100461.25;;;14.88;53.44
61906;BME280;47863;55.766;37.672;2023-05-12T04:03:41;100437.84;;;14.81;53.21
61906;BME280;47863;55.766;37.672;2023-05-12T04:06:06;100477.88;;;15.17;53.16
61906;BME280;47863;55.766;37.672;2023-05-12T04:08:32;100490.63;;;15.31;53.17
61906;BME280;47863;55.766;37.672;2023-05-12T04:10:59;100489.38;;;15.42;52.57
61906;BME280;47863;55.766;37.672;2023-05-12T04:13:29;100480.59;;;15.48;52.72
61906;BME280;47863;55.766;37.672;2023-05-12T04:15:56;100480.56;;;15.56;52.43
61906;BME280;47863;55.766;37.672;2023-05-12T04:18:26;100479.84;;;15.62;52.46
61906;BME280;47863;55.766;37.672;2023-05-12T04:20:53;100480.31;;;15.74;52.25
61906;BME280;47863;55.766;37.672;2023-05-12T04:23:19;100480.28;;;15.82;51.95
61906;BME280;47863;55.766;37.672;2023-05-12T04:25:45;100473.59;;;15.93;51.54
61906;BME280;47863;55.766;37.672;2023-05-12T04:28:11;100420.91;;;15.74;51.42
61906;BME280;47863;55.766;37.672;2023-05-12T04:30:40;100471.25;;;16.13;50.89
61906;BME280;47863;55.766;37.672;2023-05-12T04:33:06;100463.28;;;16.20;50.93
61906;BME280;47863;55.766;37.672;2023-05-12T04:35:32;100451.34;;;16.14;50.40
61906;BME280;47863;55.766;37.672;2023-05-12T04:37:58;100469.38;;;16.37;50.62
61906;BME280;47863;55.766;37.672;2023-05-12T04:40:26;100465.91;;;16.51;50.45
61906;BME280;47863;55.766;37.672;2023-05-12T04:42:51;100441.56;;;16.51;50.16
61906;BME280;47863;55.766;37.672;2023-05-12T04:45:17;100440.81;;;16.72;49.81
61906;BME280;47863;55.766;37.672;2023-05-12T04:47:43;100474.38;;;17.01;49.48
61906;BME280;47863;55.766;37.672;2023-05-12T04:50:09;100468.09;;;17.15;49.27
61906;BME280;47863;55.766;37.672;2023-05-12T04:52:35;100462.69;;;17.30;49.03
61906;BME280;47863;55.766;37.672;2023-05-12T04:55:01;100489.47;;;17.40;49.08
61906;BME280;47863;55.766;37.672;2023-05-12T04:57:28;100457.81;;;17.25;48.86
61906;BME280;47863;55.766;37.672;2023-05-12T04:59:53;100479.41;;;17.19;49.06
61906;BME280;47863;55.766;37.672;2023-05-12T05:02:20;100465.78;;;16.97;49.21
61906;BME280;47863;55.766;37.672;2023-05-12T05:04:47;100452.09;;;16.76;49.04
61906;BME280;47863;55.766;37.672;2023-05-12T05:07:12;100471.53;;;16.79;49.49
61906;BME280;47863;55.766;37.672;2023-05-12T05:09:39;100472.91;;;16.75;49.40
61906;BME280;47863;55.766;37.672;2023-05-12T05:12:05;100462.00;;;16.69;49.36
61906;BME280;47863;55.766;37.672;2023-05-12T05:14:31;100454.09;;;16.82;48.92
61906;BME280;47863;55.766;37.672;2023-05-12T05:16:57;100472.94;;;17.35;48.38
61906;BME280;47863;55.766;37.672;2023-05-12T05:19:24;100473.66;;;17.58;48.25
61906;BME280;47863;55.766;37.672;2023-05-12T05:21:50;100466.22;;;17.67;48.09
61906;BME280;47863;55.766;37.672;2023-05-12T05:24:15;100457.91;;;17.69;48.16
61906;BME280;47863;55.766;37.672;2023-05-12T05:26:41;100472.41;;;17.76;48.04
61906;BME280;47863;55.766;37.672;2023-05-12T05:29:06;100410.53;;;17.43;48.04
61906;BME280;47863;55.766;37.672;2023-05-12T05:31:32;100406.28;;;17.55;47.74
61906;BME280;47863;55.766;37.672;2023-05-12T05:33:58;100453.72;;;18.02;47.58
61906;BME280;47863;55.766;37.672;2023-05-12T05:36:24;100473.72;;;18.45;47.06
61906;BME280;47863;55.766;37.672;2023-05-12T05:38:53;100475.69;;;18.86;46.55
61906;BME280;47863;55.766;37.672;2023-05-12T05:41:18;100474.44;;;19.16;46.19
61906;BME280;47863;55.766;37.672;2023-05-12T05:43:44;100475.09;;;19.25;46.35
61906;BME280;47863;55.766;37.672;2023-05-12T05:46:10;100467.38;;;19.22;46.56
61906;BME280;47863;55.766;37.672;2023-05-12T05:48:35;100463.75;;;19.08;46.17
61906;BME280;47863;55.766;37.672;2023-05-12T05:51:01;100474.16;;;19.05;46.08
61906;BME280;47863;55.766;37.672;2023-05-12T05:53:27;100465.75;;;18.99;45.78
61906;BME280;47863;55.766;37.672;2023-05-12T05:55:52;100464.28;;;18.97;45.68
61906;BME280;47863;55.766;37.672;2023-05-12T05:58:18;100452.72;;;18.81;45.16
61906;BME280;47863;55.766;37.672;2023-05-12T06:00:43;100469.25;;;18.87;45.68
61906;BME280;47863;55.766;37.672;2023-05-12T06:03:09;100466.91;;;18.83;45.49
61906;BME280;47863;55.766;37.672;2023-05-12T06:05:35;100439.44;;;18.65;45.15
61906;BME280;47863;55.766;37.672;2023-05-12T06:08:01;100401.59;;;18.57;44.95
61906;BME280;47863;55.766;37.672;2023-05-12T06:10:27;100471.53;;;19.18;44.48
61906;BME280;47863;55.766;37.672;2023-05-12T06:12:53;100465.09;;;19.26;43.96
61906;BME280;47863;55.766;37.672;2023-05-12T06:15:18;100459.44;;;19.27;43.98
61906;BME280;47863;55.766;37.672;2023-05-12T06:17:44;100470.75;;;19.31;44.05
61906;BME280;47863;55.766;37.672;2023-05-12T06:20:10;100467.22;;;19.37;43.84
61906;BME280;47863;55.766;37.672;2023-05-12T06:22:37;100448.88;;;19.52;43.46
61906;BME280;47863;55.766;37.672;2023-05-12T06:25:03;100444.16;;;19.74;43.02
61906;BME280;47863;55.766;37.672;2023-05-12T06:27:30;100455.94;;;20.08;42.77
61906;BME280;47863;55.766;37.672;2023-05-12T06:29:55;100463.28;;;20.28;42.74
61906;BME280;47863;55.766;37.672;2023-05-12T06:32:21;100465.59;;;20.51;42.16
61906;BME280;47863;55.766;37.672;2023-05-12T06:34:46;100454.53;;;20.66;41.68
61906;BME280;47863;55.766;37.672;2023-05-12T06:37:12;100437.91;;;21.00;41.41
61906;BME280;47863;55.766;37.672;2023-05-12T06:39:38;100458.31;;;21.82;40.06
61906;BME280;47863;55.766;37.672;2023-05-12T06:42:03;100456.13;;;22.79;39.03
61906;BME280;47863;55.766;37.672;2023-05-12T06:44:29;100432.47;;;23.77;37.79
61906;BME280;47863;55.766;37.672;2023-05-12T06:46:55;100440.97;;;25.52;35.88
61906;BME280;47863;55.766;37.672;2023-05-12T06:49:21;100445.28;;;26.74;35.20
61906;BME280;47863;55.766;37.672;2023-05-12T06:51:46;100446.59;;;27.49;34.17
61906;BME280;47863;55.766;37.672;2023-05-12T06:54:12;100458.53;;;28.79;32.90
61906;BME280;47863;55.766;37.672;2023-05-12T06:56:38;100450.50;;;29.88;32.10
61906;BME280;47863;55.766;37.672;2023-05-12T06:59:04;100443.16;;;31.31;30.46
61906;BME280;47863;55.766;37.672;2023-05-12T07:01:30;100449.88;;;32.77;29.43
61906;BME280;47863;55.766;37.672;2023-05-12T07:03:57;100459.44;;;34.20;28.66
61906;BME280;47863;55.766;37.672;2023-05-12T07:06:23;100452.84;;;35.87;27.10
61906;BME280;47863;55.766;37.672;2023-05-12T07:08:52;100445.00;;;37.45;25.55
61906;BME280;47863;55.766;37.672;2023-05-12T07:11:18;100451.69;;;38.75;24.78
61906;BME280;47863;55.766;37.672;2023-05-12T07:13:48;100457.25;;;39.94;23.49
61906;BME280;47863;55.766;37.672;2023-05-12T07:16:15;100457.34;;;40.98;21.88
61906;BME280;47863;55.766;37.672;2023-05-12T07:18:41;100458.38;;;41.95;20.56
61906;BME280;47863;55.766;37.672;2023-05-12T07:21:07;100442.28;;;42.68;19.78
61906;BME280;47863;55.766;37.672;2023-05-12T07:23:33;100438.41;;;43.40;19.00
61906;BME280;47863;55.766;37.672;2023-05-12T07:26:00;100461.41;;;44.17;18.17
61906;BME280;47863;55.766;37.672;2023-05-12T07:28:28;100460.03;;;44.49;17.27
61906;BME280;47863;55.766;37.672;2023-05-12T07:30:59;100454.94;;;44.82;16.45
61906;BME280;47863;55.766;37.672;2023-05-12T07:33:25;100446.59;;;45.16;15.84
61906;BME280;47863;55.766;37.672;2023-05-12T07:35:51;100458.19;;;45.60;15.44
61906;BME280;47863;55.766;37.672;2023-05-12T07:38:16;100458.59;;;45.92;14.38
61906;BME280;47863;55.766;37.672;2023-05-12T07:40:42;100419.44;;;45.98;13.44
61906;BME280;47863;55.766;37.672;2023-05-12T07:43:09;100450.00;;;46.57;13.41
61906;BME280;47863;55.766;37.672;2023-05-12T07:45:35;100460.44;;;46.90;12.10
61906;BME280;47863;55.766;37.672;2023-05-12T07:48:01;100445.50;;;47.00;12.14
61906;BME280;47863;55.766;37.672;2023-05-12T07:50:27;100454.03;;;47.00;11.98
61906;BME280;47863;55.766;37.672;2023-05-12T07:52:55;100452.56;;;46.69;12.25
61906;BME280;47863;55.766;37.672;2023-05-12T07:55:21;100448.38;;;46.56;11.54
61906;BME280;47863;55.766;37.672;2023-05-12T07:57:52;100435.22;;;46.37;9.39
61906;BME280;47863;55.766;37.672;2023-05-12T08:00:18;100413.75;;;45.95;11.41
61906;BME280;47863;55.766;37.672;2023-05-12T08:02:44;100462.56;;;45.58;11.37
61906;BME280;47863;55.766;37.672;2023-05-12T08:05:11;100440.56;;;44.90;10.91
61906;BME280;47863;55.766;37.672;2023-05-12T08:07:37;100434.59;;;44.49;11.07
61906;BME280;47863;55.766;37.672;2023-05-12T08:10:04;100445.09;;;44.49;10.78
61906;BME280;47863;55.766;37.672;2023-05-12T08:12:32;100453.56;;;44.72;10.51
61906;BME280;47863;55.766;37.672;2023-05-12T08:14:58;100436.19;;;44.93;10.51
61906;BME280;47863;55.766;37.672;2023-05-12T08:17:24;100448.91;;;45.33;10.00
61906;BME280;47863;55.766;37.672;2023-05-12T08:19:49;100455.81;;;45.96;9.66
61906;BME280;47863;55.766;37.672;2023-05-12T08:22:15;100448.13;;;46.30;9.08
61906;BME280;47863;55.766;37.672;2023-05-12T08:24:41;100442.34;;;46.57;8.65
61906;BME280;47863;55.766;37.672;2023-05-12T08:27:07;100453.44;;;46.77;8.53
61906;BME280;47863;55.766;37.672;2023-05-12T08:29:33;100453.59;;;46.98;8.50
61906;BME280;47863;55.766;37.672;2023-05-12T08:31:58;100426.72;;;47.33;8.26
61906;BME280;47863;55.766;37.672;2023-05-12T08:34:24;100445.31;;;48.11;7.98
61906;BME280;47863;55.766;37.672;2023-05-12T08:36:53;100422.25;;;48.70;7.79
61906;BME280;47863;55.766;37.672;2023-05-12T08:39:20;100434.78;;;49.23;7.56
61906;BME280;47863;55.766;37.672;2023-05-12T08:44:14;100422.97;;;49.50;7.28
61906;BME280;47863;55.766;37.672;2023-05-12T08:46:41;100404.69;;;49.36;7.28
61906;BME280;47863;55.766;37.672;2023-05-12T08:49:16;100430.78;;;48.59;7.08
61906;BME280;47863;55.766;37.672;2023-05-12T08:51:43;100412.69;;;47.62;7.67
61906;BME280;47863;55.766;37.672;2023-05-12T08:54:11;100419.00;;;45.62;8.21
61906;BME280;47863;55.766;37.672;2023-05-12T08:56:38;100389.59;;;44.60;8.27
61906;BME280;47863;55.766;37.672;2023-05-12T08:59:08;100425.50;;;42.88;8.75
61906;BME280;47863;55.766;37.672;2023-05-12T09:01:34;100375.06;;;41.50;9.26
61906;BME280;47863;55.766;37.672;2023-05-12T09:04:01;100418.97;;;42.39;8.82
61906;BME280;47863;55.766;37.672;2023-05-12T09:06:27;100417.38;;;43.02;8.65
61906;BME280;47863;55.766;37.672;2023-05-12T09:08:53;100414.69;;;44.00;8.45
61906;BME280;47863;55.766;37.672;2023-05-12T09:11:19;100418.72;;;44.87;8.25
61906;BME280;47863;55.766;37.672;2023-05-12T09:16:22;100372.13;;;44.78;7.94
61906;BME280;47863;55.766;37.672;2023-05-12T09:18:50;100387.47;;;45.94;7.45
61906;BME280;47863;55.766;37.672;2023-05-12T09:21:17;100389.13;;;46.81;7.21
61906;BME280;47863;55.766;37.672;2023-05-12T09:23:56;100407.41;;;46.91;7.05
61906;BME280;47863;55.766;37.672;2023-05-12T09:26:23;100415.88;;;45.14;7.91
61906;BME280;47863;55.766;37.672;2023-05-12T09:28:51;100394.28;;;42.81;8.45
61906;BME280;47863;55.766;37.672;2023-05-12T09:31:19;100372.94;;;40.82;9.16
61906;BME280;47863;55.766;37.672;2023-05-12T09:33:45;100389.19;;;41.26;9.23
61906;BME280;47863;55.766;37.672;2023-05-12T09:36:15;100403.53;;;42.33;8.03
61906;BME280;47863;55.766;37.672;2023-05-12T09:38:41;100396.19;;;44.02;8.24
61906;BME280;47863;55.766;37.672;2023-05-12T09:41:07;100377.59;;;45.47;7.75
61906;BME280;47863;55.766;37.672;2023-05-12T09:43:33;100383.81;;;46.35;7.01
61906;BME280;47863;55.766;37.672;2023-05-12T09:46:04;100398.16;;;45.74;7.07
61906;BME280;47863;55.766;37.672;2023-05-12T09:48:30;100388.75;;;44.13;8.08
61906;BME280;47863;55.766;37.672;2023-05-12T09:50:56;100394.22;;;42.01;8.73
61906;BME280;47863;55.766;37.672;2023-05-12T09:53:23;100386.84;;;40.08;9.40
61906;BME280;47863;55.766;37.672;2023-05-12T09:55:49;100394.94;;;38.57;9.64
61906;BME280;47863;55.766;37.672;2023-05-12T09:58:19;100375.66;;;37.39;10.17
61906;BME280;47863;55.766;37.672;2023-05-12T10:00:45;100358.19;;;36.67;10.60
61906;BME280;47863;55.766;37.672;2023-05-12T10:03:16;100377.09;;;36.39;11.11
61906;BME280;47863;55.766;37.672;2023-05-12T10:05:52;100385.59;;;36.11;10.77
61906;BME280;47863;55.766;37.672;2023-05-12T10:08:35;100153.53;;;33.69;11.23
61906;BME280;47863;55.766;37.672;2023-05-12T10:11:04;100384.91;;;34.22;11.55
61906;BME280;47863;55.766;37.672;2023-05-12T10:13:32;100376.53;;;35.10;11.23
61906;BME280;47863;55.766;37.672;2023-05-12T10:15:57;100372.81;;;37.21;10.60
61906;BME280;47863;55.766;37.672;2023-05-12T10:18:24;100351.00;;;38.49;9.78
61906;BME280;47863;55.766;37.672;2023-05-12T10:20:51;100383.91;;;40.04;9.16
61906;BME280;47863;55.766;37.672;2023-05-12T10:23:18;100374.19;;;41.21;8.96
61906;BME280;47863;55.766;37.672;2023-05-12T10:25:44;100379.56;;;41.27;9.06
61906;BME280;47863;55.766;37.672;2023-05-12T10:28:10;100382.16;;;41.07;9.28
61906;BME280;47863;55.766;37.672;2023-05-12T10:30:40;100379.84;;;41.62;9.20
61906;BME280;47863;55.766;37.672;2023-05-12T10:33:07;100372.50;;;42.62;8.55
61906;BME280;47863;55.766;37.672;2023-05-12T10:35:37;100369.00;;;43.71;8.19
61906;BME280;47863;55.766;37.672;2023-05-12T10:38:09;100358.22;;;44.19;8.33
61906;BME280;47863;55.766;37.672;2023-05-12T10:41:00;100363.63;;;43.11;8.39
61906;BME280;47863;55.766;37.672;2023-05-12T10:43:37;100347.75;;;40.73;9.10
61906;BME280;47863;55.766;37.672;2023-05-12T10:46:18;100369.59;;;38.54;10.14
61906;BME280;47863;55.766;37.672;2023-05-12T10:49:01;100309.13;;;36.03;10.49
61906;BME280;47863;55.766;37.672;2023-05-12T10:51:32;100366.91;;;34.47;11.65
61906;BME280;47863;55.766;37.672;2023-05-12T10:54:01;100366.25;;;32.89;12.37
61906;BME280;47863;55.766;37.672;2023-05-12T10:56:30;100367.16;;;31.57;12.72
61906;BME280;47863;55.766;37.672;2023-05-12T10:59:13;100341.94;;;30.23;13.01
61906;BME280;47863;55.766;37.672;2023-05-12T11:02:01;100341.31;;;29.34;13.59
61906;BME280;47863;55.766;37.672;2023-05-12T11:04:46;100364.06;;;28.94;13.60
61906;BME280;47863;55.766;37.672;2023-05-12T11:07:13;100364.19;;;28.66;13.79
61906;BME280;47863;55.766;37.672;2023-05-12T11:09:41;100369.25;;;29.69;13.75
61906;BME280;47863;55.766;37.672;2023-05-12T11:12:08;100367.97;;;31.63;12.62
61906;BME280;47863;55.766;37.672;2023-05-12T11:14:35;100373.78;;;33.32;11.78
61906;BME280;47863;55.766;37.672;2023-05-12T11:17:01;100366.91;;;34.47;11.60
61906;BME280;47863;55.766;37.672;2023-05-12T11:19:27;100357.75;;;35.29;11.33
61906;BME280;47863;55.766;37.672;2023-05-12T11:21:53;100351.06;;;35.98;11.20
61906;BME280;47863;55.766;37.672;2023-05-12T11:24:22;100362.38;;;36.87;10.68
61906;BME280;47863;55.766;37.672;2023-05-12T11:26:48;100362.03;;;37.63;10.54
61906;BME280;47863;55.766;37.672;2023-05-12T11:29:18;100370.81;;;38.26;10.46
61906;BME280;47863;55.766;37.672;2023-05-12T11:31:50;100337.06;;;38.70;10.17
61906;BME280;47863;55.766;37.672;2023-05-12T11:34:26;100355.59;;;39.43;9.80
61906;BME280;47863;55.766;37.672;2023-05-12T11:36:54;100344.16;;;40.02;9.98
61906;BME280;47863;55.766;37.672;2023-05-12T11:39:22;100352.50;;;40.23;9.75
61906;BME280;47863;55.766;37.672;2023-05-12T11:41:48;100345.19;;;39.43;9.98
61906;BME280;47863;55.766;37.672;2023-05-12T11:44:16;100356.44;;;39.35;10.03
61906;BME280;47863;55.766;37.672;2023-05-12T11:47:02;100344.56;;;38.57;10.51
61906;BME280;47863;55.766;37.672;2023-05-12T11:49:29;100350.31;;;37.96;10.46
61906;BME280;47863;55.766;37.672;2023-05-12T11:51:59;100319.84;;;38.03;10.60
61906;BME280;47863;55.766;37.672;2023-05-12T11:54:28;100334.34;;;37.97;10.67
61906;BME280;47863;55.766;37.672;2023-05-12T11:56:55;100330.41;;;37.89;10.85
61906;BME280;47863;55.766;37.672;2023-05-12T11:59:31;100333.75;;;37.39;10.37
61906;BME280;47863;55.766;37.672;2023-05-12T12:02:02;100316.22;;;36.81;10.72
61906;BME280;47863;55.766;37.672;2023-05-12T12:04:38;100324.38;;;37.17;10.91
61906;BME280;47863;55.766;37.672;2023-05-12T12:07:05;100323.88;;;37.24;10.92
61906;BME280;47863;55.766;37.672;2023-05-12T12:09:38;100328.53;;;36.88;10.59
61906;BME280;47863;55.766;37.672;2023-05-12T12:12:09;100307.97;;;36.27;11.13
61906;BME280;47863;55.766;37.672;2023-05-12T12:14:36;100333.75;;;35.79;10.99
61906;BME280;47863;55.766;37.672;2023-05-12T12:17:03;100303.19;;;34.78;11.36
61906;BME280;47863;55.766;37.672;2023-05-12T12:19:29;100324.69;;;33.98;12.10
61906;BME280;47863;55.766;37.672;2023-05-12T12:21:55;100301.00;;;33.16;12.24
61906;BME280;47863;55.766;37.672;2023-05-12T12:24:21;100297.25;;;32.83;12.12
61906;BME280;47863;55.766;37.672;2023-05-12T12:26:47;100305.69;;;32.96;12.30
61906;BME280;47863;55.766;37.672;2023-05-12T12:29:13;100293.00;;;32.90;12.31
61906;BME280;47863;55.766;37.672;2023-05-12T12:31:38;100308.22;;;32.93;12.31
61906;BME280;47863;55.766;37.672;2023-05-12T12:34:04;100284.56;;;32.52;12.38
61906;BME280;47863;55.766;37.672;2023-05-12T12:36:31;100310.72;;;32.17;12.60
61906;BME280;47863;55.766;37.672;2023-05-12T12:38:58;100307.13;;;31.53;12.95
61906;BME280;47863;55.766;37.672;2023-05-12T12:41:23;100307.19;;;30.88;13.19
61906;BME280;47863;55.766;37.672;2023-05-12T12:43:50;100295.53;;;30.25;13.52
61906;BME280;47863;55.766;37.672;2023-05-12T12:46:17;100298.31;;;29.79;13.57
61906;BME280;47863;55.766;37.672;2023-05-12T12:48:43;100298.00;;;29.40;13.79